createdAt,value
2019-03-26T00:00:43.222Z,94246.52
2019-03-26T00:03:12.934Z,94246.87
2019-03-26T00:05:42.494Z,94257.45
2019-03-26T00:08:12.099Z,94266.77
2019-03-26T00:10:41.615Z,94273.11
2019-03-26T00:13:11.127Z,94274.56
2019-03-26T00:15:40.545Z,94279.71
2019-03-26T00:18:10.016Z,94285.31
2019-03-26T00:20:39.582Z,94305.82
2019-03-26T00:23:09.151Z,94306.58
2019-03-26T00:25:38.718Z,94317.08
2019-03-26T00:28:08.286Z,94315.70
2019-03-26T00:30:37.852Z,94309.88
2019-03-26T00:33:07.450Z,94315.94
2019-03-26T00:35:37.015Z,94317.91
2019-03-26T00:38:06.755Z,94321.27
2019-03-26T00:40:36.334Z,94320.03
2019-03-26T00:43:06.080Z,94321.32
2019-03-26T00:45:35.651Z,94323.86
2019-03-26T00:48:05.245Z,94330.91
2019-03-26T00:50:34.740Z,94336.87
2019-03-26T00:53:04.487Z,94335.58
2019-03-26T00:55:33.928Z,94341.27
2019-03-26T00:58:03.506Z,94334.86
2019-03-26T01:00:38.644Z,94345.39
2019-03-26T01:03:10.077Z,94335.56
2019-03-26T01:05:41.175Z,94345.64
2019-03-26T01:08:10.864Z,94360.91
2019-03-26T01:10:42.732Z,94356.93
2019-03-26T01:13:12.344Z,94359.77
2019-03-26T01:15:41.923Z,94364.81
2019-03-26T01:18:11.502Z,94364.55
2019-03-26T01:20:41.121Z,94354.31
2019-03-26T01:23:10.647Z,94357.90
2019-03-26T01:25:40.150Z,94363.77
2019-03-26T01:28:09.668Z,94365.06
2019-03-26T01:30:40.208Z,94366.94
2019-03-26T01:33:09.813Z,94356.56
2019-03-26T01:35:39.301Z,94366.45
2019-03-26T01:38:08.801Z,94361.14
2019-03-26T01:40:38.342Z,94368.69
2019-03-26T01:43:08.011Z,94376.58
2019-03-26T01:45:37.618Z,94371.60
2019-03-26T01:48:07.186Z,94371.77
2019-03-26T01:50:36.715Z,94383.24
2019-03-26T01:53:06.446Z,94362.00
2019-03-26T01:55:36.000Z,94384.03
2019-03-26T01:58:05.600Z,94386.73
2019-03-26T02:00:36.206Z,94393.76
2019-03-26T02:03:05.794Z,94391.65
2019-03-26T02:05:35.446Z,94395.58
2019-03-26T02:08:05.043Z,94395.18
2019-03-26T02:10:34.780Z,94404.21
2019-03-26T02:13:04.648Z,94402.47
2019-03-26T02:15:35.281Z,94398.34
2019-03-26T02:18:04.898Z,94403.62
2019-03-26T02:20:34.455Z,94414.80
2019-03-26T02:23:04.242Z,94413.27
2019-03-26T02:25:33.778Z,94414.66
2019-03-26T02:28:03.336Z,94427.67
2019-03-26T02:30:32.935Z,94427.48
2019-03-26T02:33:02.460Z,94433.44
2019-03-26T02:35:33.023Z,94429.16
2019-03-26T02:38:02.631Z,94432.34
2019-03-26T02:40:32.194Z,94443.70
2019-03-26T02:43:02.694Z,94453.03
2019-03-26T02:45:32.406Z,94460.34
2019-03-26T02:48:01.855Z,94457.88
2019-03-26T02:50:31.284Z,94461.23
2019-03-26T02:53:01.028Z,94468.42
2019-03-26T02:55:31.570Z,94470.50
2019-03-26T02:58:01.073Z,94469.53
2019-03-26T03:00:30.502Z,94481.56
2019-03-26T03:03:00.001Z,94476.13
2019-03-26T03:05:35.755Z,94502.12
2019-03-26T03:08:00.851Z,94507.34
2019-03-26T03:10:31.343Z,94500.52
2019-03-26T03:13:00.887Z,94524.11
2019-03-26T03:15:30.479Z,94519.89
2019-03-26T03:17:59.974Z,94526.50
2019-03-26T03:20:29.691Z,94533.89
2019-03-26T03:22:59.468Z,94537.84
2019-03-26T03:25:28.994Z,94545.25
2019-03-26T03:27:58.626Z,94549.63
2019-03-26T03:30:28.130Z,94548.69
2019-03-26T03:32:57.742Z,94557.67
2019-03-26T03:35:27.246Z,94579.77
2019-03-26T03:37:56.830Z,94561.41
2019-03-26T03:40:26.398Z,94572.70
2019-03-26T03:42:55.932Z,94579.59
2019-03-26T03:45:29.222Z,94587.98
2019-03-26T03:48:00.748Z,94588.88
2019-03-26T03:50:30.465Z,94597.96
2019-03-26T03:53:00.722Z,94604.48
2019-03-26T03:55:30.896Z,94601.86
2019-03-26T03:58:01.443Z,94606.77
2019-03-26T04:00:35.855Z,94619.02
2019-03-26T04:03:07.393Z,94624.25
2019-03-26T04:05:37.426Z,94627.63
2019-03-26T04:08:07.892Z,94642.88
2019-03-26T04:10:37.517Z,94638.41
2019-03-26T04:13:07.212Z,94640.39
2019-03-26T04:15:37.808Z,94646.14
2019-03-26T04:18:07.371Z,94659.55
2019-03-26T04:20:36.882Z,94660.70
2019-03-26T04:23:06.594Z,94669.41
2019-03-26T04:25:36.132Z,94664.91
2019-03-26T04:28:05.756Z,94668.84
2019-03-26T04:30:35.421Z,94666.72
2019-03-26T04:33:05.008Z,94681.36
2019-03-26T04:35:34.509Z,94678.88
2019-03-26T04:38:03.999Z,94686.48
2019-03-26T04:40:33.831Z,94689.48
2019-03-26T04:43:03.334Z,94689.28
2019-03-26T04:45:32.903Z,94698.94
2019-03-26T04:48:02.407Z,94708.22
2019-03-26T04:50:31.942Z,94704.84
2019-03-26T04:53:01.374Z,94717.78
2019-03-26T04:55:30.861Z,94717.70
2019-03-26T04:58:00.536Z,94716.95
2019-03-26T05:00:31.020Z,94712.55
2019-03-26T05:03:02.268Z,94727.25
2019-03-26T05:05:31.904Z,94736.38
2019-03-26T05:08:01.476Z,94730.47
2019-03-26T05:10:31.066Z,94729.09
2019-03-26T05:13:00.668Z,94730.94
2019-03-26T05:15:30.106Z,94740.23
2019-03-26T05:17:59.696Z,94742.25
2019-03-26T05:20:29.273Z,94747.30
2019-03-26T05:22:58.943Z,94747.69
2019-03-26T05:25:28.481Z,94750.09
2019-03-26T05:27:57.986Z,94747.69
2019-03-26T05:30:27.393Z,94746.41
2019-03-26T05:32:57.098Z,94754.43
2019-03-26T05:35:26.677Z,94755.82
2019-03-26T05:37:56.245Z,94754.89
2019-03-26T05:40:25.858Z,94759.23
2019-03-26T05:42:55.442Z,94741.17
2019-03-26T05:45:25.622Z,94760.80
2019-03-26T05:47:56.661Z,94759.28
2019-03-26T05:50:26.160Z,94755.23
2019-03-26T05:52:55.675Z,94742.64
2019-03-26T05:55:25.111Z,94754.97
2019-03-26T05:57:59.424Z,94749.27
2019-03-26T06:00:29.123Z,94749.76
2019-03-26T06:02:58.631Z,94744.94
2019-03-26T06:05:28.135Z,94742.53
2019-03-26T06:07:57.722Z,94733.65
2019-03-26T06:10:27.295Z,94741.33
2019-03-26T06:12:57.005Z,94735.13
2019-03-26T06:15:26.614Z,94735.02
2019-03-26T06:17:57.539Z,94733.56
2019-03-26T06:20:27.218Z,94737.92
2019-03-26T06:22:57.002Z,94740.02
2019-03-26T06:25:26.578Z,94743.61
2019-03-26T06:27:56.115Z,94738.98
2019-03-26T06:30:25.699Z,94740.17
2019-03-26T06:32:55.348Z,94733.33
2019-03-26T06:35:25.973Z,94737.47
2019-03-26T06:38:05.778Z,94748.34
2019-03-26T06:40:49.399Z,94753.88
2019-03-26T06:43:20.563Z,94740.67
2019-03-26T06:45:50.167Z,94737.87
2019-03-26T06:48:19.818Z,94729.53
2019-03-26T06:50:49.375Z,94734.81
2019-03-26T06:53:18.961Z,94715.09
2019-03-26T06:55:48.530Z,94731.22
2019-03-26T06:58:18.236Z,94735.05
2019-03-26T07:00:47.886Z,94733.44
2019-03-26T07:03:17.493Z,94739.28
2019-03-26T07:05:47.063Z,94739.16
2019-03-26T07:08:16.698Z,94736.91
2019-03-26T07:10:46.398Z,94734.53
2019-03-26T07:13:15.942Z,94739.35
2019-03-26T07:15:45.583Z,94744.09
2019-03-26T07:18:15.332Z,94722.91
2019-03-26T07:20:44.879Z,94750.08
2019-03-26T07:23:14.543Z,94733.28
2019-03-26T07:25:50.608Z,94738.58
2019-03-26T07:28:19.980Z,94737.77
2019-03-26T07:30:49.546Z,94733.47
2019-03-26T07:33:19.079Z,94737.81
2019-03-26T07:35:48.700Z,94740.77
2019-03-26T07:38:18.442Z,94738.06
2019-03-26T07:40:48.045Z,94724.84
2019-03-26T07:43:18.039Z,94744.97
2019-03-26T07:45:47.688Z,94756.42
2019-03-26T07:48:17.121Z,94751.02
2019-03-26T07:50:46.681Z,94747.72
2019-03-26T07:53:16.320Z,94753.94
2019-03-26T07:55:46.012Z,94753.47
2019-03-26T07:58:15.578Z,94761.66
2019-03-26T08:00:45.156Z,94753.08
2019-03-26T08:03:14.846Z,94746.69
2019-03-26T08:05:44.425Z,94742.66
2019-03-26T08:08:14.064Z,94754.39
2019-03-26T08:10:43.652Z,94756.25
2019-03-26T08:13:13.182Z,94745.53
2019-03-26T08:15:43.246Z,94756.81
2019-03-26T08:18:12.941Z,94746.46
2019-03-26T08:20:42.582Z,94746.49
2019-03-26T08:23:12.316Z,94753.27
2019-03-26T08:25:46.867Z,94751.36
2019-03-26T08:28:16.534Z,94755.13
2019-03-26T08:30:46.135Z,94761.05
2019-03-26T08:33:15.692Z,94779.12
2019-03-26T08:35:45.281Z,94774.56
2019-03-26T08:38:14.924Z,94775.06
2019-03-26T08:40:44.778Z,94770.89
2019-03-26T08:43:14.302Z,94772.60
2019-03-26T08:45:43.911Z,94779.09
2019-03-26T08:48:13.544Z,94786.16
2019-03-26T08:50:43.224Z,94778.50
2019-03-26T08:53:12.730Z,94769.61
2019-03-26T08:55:42.278Z,94794.37
2019-03-26T08:58:22.531Z,94784.66
2019-03-26T09:00:52.058Z,94783.09
2019-03-26T09:03:21.694Z,94783.67
2019-03-26T09:05:51.398Z,94782.50
2019-03-26T09:08:25.675Z,94779.12
2019-03-26T09:10:58.432Z,94779.31
2019-03-26T09:13:28.175Z,94772.91
2019-03-26T09:16:01.960Z,94768.95
2019-03-26T09:18:47.412Z,94770.20
2019-03-26T09:21:17.056Z,94773.28
2019-03-26T09:23:47.680Z,94766.53
2019-03-26T09:26:17.318Z,94763.39
2019-03-26T09:28:48.349Z,94765.47
2019-03-26T09:31:18.001Z,94776.72
2019-03-26T09:33:47.639Z,94776.89
2019-03-26T09:36:17.223Z,94768.16
2019-03-26T09:38:46.820Z,94772.63
2019-03-26T09:41:16.402Z,94774.09
2019-03-26T09:43:46.063Z,94770.67
2019-03-26T09:46:15.567Z,94763.77
2019-03-26T09:48:45.076Z,94768.48
2019-03-26T09:51:14.596Z,94775.89
2019-03-26T09:53:45.113Z,94783.23
2019-03-26T09:56:27.752Z,94784.09
2019-03-26T09:58:45.949Z,94776.22
2019-03-26T10:01:15.458Z,94787.00
2019-03-26T10:03:45.101Z,94780.70
2019-03-26T10:06:23.254Z,94799.50
2019-03-26T10:08:52.458Z,94780.51
2019-03-26T10:11:17.289Z,94809.96
2019-03-26T10:13:46.928Z,94790.20
2019-03-26T10:16:16.530Z,94792.50
2019-03-26T10:18:45.948Z,94783.62
2019-03-26T10:21:15.545Z,94784.91
2019-03-26T10:23:45.200Z,94792.59
2019-03-26T10:26:15.940Z,94794.51
2019-03-26T10:28:45.501Z,94797.41
2019-03-26T10:31:16.154Z,94807.01
2019-03-26T10:33:45.835Z,94803.72
2019-03-26T10:36:18.355Z,94791.32
2019-03-26T10:41:55.685Z,94809.12
2019-03-26T10:44:25.296Z,94805.66
2019-03-26T10:46:55.022Z,94800.04
2019-03-26T10:49:24.684Z,94805.00
2019-03-26T10:51:54.468Z,94807.52
2019-03-26T10:54:24.044Z,94796.23
2019-03-26T10:56:53.590Z,94793.94
2019-03-26T10:59:31.756Z,94804.32
2019-03-26T11:05:30.910Z,94800.28
2019-03-26T11:08:00.548Z,94804.23
2019-03-26T11:10:30.220Z,94800.73
2019-03-26T11:13:00.016Z,94804.19
2019-03-26T11:15:29.685Z,94809.92
2019-03-26T11:18:00.094Z,94802.00
2019-03-26T11:20:29.710Z,94809.20
2019-03-26T11:22:59.383Z,94805.56
2019-03-26T11:25:29.030Z,94799.13
2019-03-26T11:27:58.718Z,94807.55
2019-03-26T11:30:28.323Z,94799.05
2019-03-26T11:32:57.899Z,94811.70
2019-03-26T11:35:27.480Z,94806.69
2019-03-26T11:37:57.024Z,94812.08
2019-03-26T11:40:26.667Z,94805.70
2019-03-26T11:42:56.295Z,94807.58
2019-03-26T11:45:26.072Z,94805.76
2019-03-26T11:47:55.701Z,94812.54
2019-03-26T11:50:25.283Z,94798.20
2019-03-26T11:52:55.035Z,94800.04
2019-03-26T11:55:24.643Z,94795.06
2019-03-26T11:57:54.207Z,94805.05
2019-03-26T12:00:26.373Z,94794.67
2019-03-26T12:02:55.996Z,94799.55
2019-03-26T12:05:25.780Z,94799.44
2019-03-26T12:07:55.382Z,94806.69
2019-03-26T12:10:24.956Z,94806.80
2019-03-26T12:12:54.559Z,94802.06
2019-03-26T12:15:24.063Z,94810.95
2019-03-26T12:17:53.491Z,94811.07
2019-03-26T12:20:23.128Z,94811.57
2019-03-26T12:22:52.706Z,94817.94
2019-03-26T12:25:22.459Z,94811.08
2019-03-26T12:27:51.944Z,94809.60
2019-03-26T12:30:29.454Z,94806.92
2019-03-26T12:32:59.259Z,94804.14
2019-03-26T12:35:29.640Z,94804.53
2019-03-26T12:37:59.368Z,94810.97
2019-03-26T12:40:28.941Z,94818.05
2019-03-26T12:42:58.572Z,94815.38
2019-03-26T12:45:28.106Z,94828.55
2019-03-26T12:47:57.759Z,94834.47
2019-03-26T12:50:27.361Z,94828.44
2019-03-26T12:52:56.937Z,94824.78
2019-03-26T12:55:26.441Z,94816.95
2019-03-26T12:57:56.226Z,94825.16
2019-03-26T13:00:32.746Z,94822.37
2019-03-26T13:03:02.644Z,94820.39
2019-03-26T13:05:32.132Z,94815.32
2019-03-26T13:08:01.821Z,94811.83
2019-03-26T13:10:31.478Z,94813.03
2019-03-26T13:13:01.057Z,94809.02
2019-03-26T13:15:30.730Z,94805.30
2019-03-26T13:18:01.281Z,94807.54
2019-03-26T13:20:31.074Z,94797.40
2019-03-26T13:23:00.768Z,94799.05
2019-03-26T13:25:30.508Z,94801.26
2019-03-26T13:28:00.143Z,94802.59
2019-03-26T13:30:29.931Z,94801.83
2019-03-26T13:32:59.556Z,94811.60
2019-03-26T13:35:29.095Z,94818.05
2019-03-26T13:37:59.669Z,94823.91
2019-03-26T13:40:30.295Z,94820.23
2019-03-26T13:43:00.186Z,94818.27
2019-03-26T13:45:32.693Z,94811.25
2019-03-26T13:48:01.038Z,94807.41
2019-03-26T13:50:31.633Z,94818.57
2019-03-26T13:53:01.363Z,94823.67
2019-03-26T13:55:30.929Z,94823.15
2019-03-26T13:58:00.428Z,94817.59
2019-03-26T14:00:35.010Z,94816.45
2019-03-26T14:03:05.204Z,94811.81
2019-03-26T14:05:34.930Z,94820.38
2019-03-26T14:08:04.721Z,94808.45
2019-03-26T14:10:40.665Z,94823.08
2019-03-26T14:13:06.084Z,94829.67
2019-03-26T14:15:35.688Z,94817.45
2019-03-26T14:18:05.405Z,94821.52
2019-03-26T14:20:35.092Z,94827.05
2019-03-26T14:23:04.764Z,94817.40
2019-03-26T14:25:34.511Z,94820.70
2019-03-26T14:28:04.244Z,94821.46
2019-03-26T14:30:38.583Z,94814.19
2019-03-26T14:33:08.711Z,94813.89
2019-03-26T14:35:39.262Z,94817.23
2019-03-26T14:38:09.915Z,94811.44
2019-03-26T14:40:39.566Z,94819.16
2019-03-26T14:43:09.229Z,94814.05
2019-03-26T14:45:42.205Z,94808.42
2019-03-26T14:48:10.316Z,94812.64
2019-03-26T14:50:39.997Z,94811.31
2019-03-26T14:53:09.614Z,94817.80
2019-03-26T14:55:39.209Z,94818.86
2019-03-26T14:58:08.787Z,94820.77
2019-03-26T15:00:38.462Z,94824.64
2019-03-26T15:03:08.249Z,94818.73
2019-03-26T15:05:37.872Z,94826.14
2019-03-26T15:08:08.250Z,94831.30
2019-03-26T15:10:37.911Z,94836.48
2019-03-26T15:13:07.721Z,94827.14
2019-03-26T15:15:37.398Z,94842.95
2019-03-26T15:18:07.132Z,94841.75
2019-03-26T15:20:36.768Z,94840.51
2019-03-26T15:23:06.746Z,94850.36
2019-03-26T15:25:36.179Z,94846.23
2019-03-26T15:28:11.469Z,94854.22
2019-03-26T15:30:39.519Z,94864.70
2019-03-26T15:33:14.259Z,94859.48
2019-03-26T15:35:43.834Z,94862.67
2019-03-26T15:38:13.522Z,94869.80
2019-03-26T15:40:43.233Z,94869.98
2019-03-26T15:43:12.826Z,94874.61
2019-03-26T15:45:42.685Z,94886.20
2019-03-26T15:48:12.187Z,94888.57
2019-03-26T15:50:43.455Z,94891.16
2019-03-26T15:53:13.578Z,94888.30
2019-03-26T15:55:43.333Z,94897.61
2019-03-26T15:58:13.027Z,94892.27
2019-03-26T16:00:42.598Z,94894.13
2019-03-26T16:03:12.293Z,94893.32
2019-03-26T16:05:41.941Z,94893.55
2019-03-26T16:08:11.528Z,94900.42
2019-03-26T16:10:41.134Z,94907.55
2019-03-26T16:13:10.779Z,94907.75
2019-03-26T16:15:44.811Z,94911.83
2019-03-26T16:18:12.290Z,94912.59
2019-03-26T16:20:41.902Z,94913.28
2019-03-26T16:23:11.602Z,94915.78
2019-03-26T16:25:41.163Z,94892.39
2019-03-26T16:28:10.777Z,94932.02
2019-03-26T16:30:41.296Z,94931.44
2019-03-26T16:33:10.929Z,94934.13
2019-03-26T16:35:40.674Z,94942.01
2019-03-26T16:38:11.667Z,94933.52
2019-03-26T16:40:41.264Z,94937.08
2019-03-26T16:43:11.827Z,94944.59
2019-03-26T16:45:41.563Z,94944.80
2019-03-26T16:48:12.149Z,94950.36
2019-03-26T16:50:41.778Z,94953.09
2019-03-26T16:53:11.265Z,94950.90
2019-03-26T16:55:40.855Z,94955.25
2019-03-26T16:58:10.419Z,94961.72
2019-03-26T17:00:39.830Z,94966.08
2019-03-26T17:03:09.446Z,94980.30
2019-03-26T17:05:39.015Z,94981.16
2019-03-26T17:08:08.654Z,94985.58
2019-03-26T17:10:38.213Z,94989.06
2019-03-26T17:13:07.806Z,94980.73
2019-03-26T17:15:37.364Z,94987.66
2019-03-26T17:18:06.996Z,94997.88
2019-03-26T17:20:36.524Z,94992.31
2019-03-26T17:23:06.165Z,94998.28
2019-03-26T17:25:35.729Z,94998.04
2019-03-26T17:28:05.382Z,95002.30
2019-03-26T17:30:35.158Z,95002.30
2019-03-26T17:33:05.152Z,95008.95
2019-03-26T17:35:34.836Z,95016.14
2019-03-26T17:38:04.395Z,95021.72
2019-03-26T17:40:34.173Z,95015.69
2019-03-26T17:43:04.174Z,95017.37
2019-03-26T17:45:33.598Z,95020.06
2019-03-26T17:48:03.169Z,95032.59
2019-03-26T17:50:32.591Z,95026.38
2019-03-26T17:53:02.996Z,95042.80
2019-03-26T17:55:32.621Z,95044.45
2019-03-26T17:58:02.133Z,95042.28
2019-03-26T18:00:41.100Z,95048.83
2019-03-26T18:03:10.677Z,95049.05
2019-03-26T18:05:40.314Z,95047.69
2019-03-26T18:08:09.936Z,95056.81
2019-03-26T18:10:39.431Z,95069.66
2019-03-26T18:13:08.990Z,95078.05
2019-03-26T18:15:39.459Z,95073.57
2019-03-26T18:18:10.830Z,95078.36
2019-03-26T18:20:40.442Z,95081.72
2019-03-26T18:23:10.246Z,95084.37
2019-03-26T18:25:39.881Z,95093.16
2019-03-26T18:28:09.531Z,95097.14
2019-03-26T18:30:39.198Z,95099.66
2019-03-26T18:33:09.047Z,95102.47
2019-03-26T18:35:42.248Z,95101.36
2019-03-26T18:38:14.890Z,95110.06
2019-03-26T18:40:44.584Z,95107.42
2019-03-26T18:43:14.387Z,95111.34
2019-03-26T18:45:43.960Z,95112.08
2019-03-26T18:48:14.380Z,95118.39
2019-03-26T18:50:44.293Z,95114.30
2019-03-26T18:53:13.790Z,95117.72
2019-03-26T18:55:43.423Z,95107.70
2019-03-26T18:58:13.477Z,95118.13
2019-03-26T19:00:43.005Z,95125.59
2019-03-26T19:03:13.672Z,95114.75
2019-03-26T19:05:43.227Z,95123.17
2019-03-26T19:08:13.155Z,95123.13
2019-03-26T19:10:42.710Z,95126.87
2019-03-26T19:13:19.298Z,95134.98
2019-03-26T19:15:43.394Z,95127.60
2019-03-26T19:18:13.039Z,95130.97
2019-03-26T19:20:42.618Z,95137.55
2019-03-26T19:23:12.224Z,95134.84
2019-03-26T19:25:42.802Z,95135.16
2019-03-26T19:28:12.301Z,95142.80
2019-03-26T19:30:41.872Z,95136.56
2019-03-26T19:33:11.568Z,95150.45
2019-03-26T19:35:41.238Z,95149.17
2019-03-26T19:38:10.770Z,95151.51
2019-03-26T19:40:40.261Z,95150.77
2019-03-26T19:43:11.646Z,95162.79
2019-03-26T19:45:41.444Z,95156.98
2019-03-26T19:48:11.054Z,95158.29
2019-03-26T19:50:41.672Z,95158.23
2019-03-26T19:53:11.251Z,95166.02
2019-03-26T19:55:40.753Z,95172.25
2019-03-26T19:58:10.359Z,95172.09
2019-03-26T20:00:39.954Z,95182.94
2019-03-26T20:03:09.490Z,95177.53
2019-03-26T20:05:39.235Z,95190.53
2019-03-26T20:08:08.966Z,95196.31
2019-03-26T20:10:38.540Z,95195.67
2019-03-26T20:13:08.195Z,95201.97
2019-03-26T20:15:37.851Z,95209.61
2019-03-26T20:18:07.466Z,95202.48
2019-03-26T20:20:37.097Z,95206.00
2019-03-26T20:23:06.783Z,95201.36
2019-03-26T20:25:36.401Z,95205.49
2019-03-26T20:28:06.143Z,95211.02
2019-03-26T20:30:38.796Z,95215.19
2019-03-26T20:33:10.556Z,95218.11
2019-03-26T20:35:43.449Z,95212.54
2019-03-26T20:38:13.341Z,95222.83
2019-03-26T20:40:43.266Z,95230.13
2019-03-26T20:43:14.231Z,95225.44
2019-03-26T20:45:43.981Z,95229.56
2019-03-26T20:48:13.662Z,95226.52
2019-03-26T20:50:43.239Z,95224.44
2019-03-26T20:53:12.879Z,95222.00
2019-03-26T20:55:53.623Z,95234.12
2019-03-26T20:58:13.851Z,95231.67
2019-03-26T21:00:43.526Z,95237.61
2019-03-26T21:03:13.245Z,95232.69
2019-03-26T21:05:42.962Z,95238.97
2019-03-26T21:08:12.574Z,95236.76
2019-03-26T21:10:42.227Z,95242.84
2019-03-26T21:13:11.797Z,95249.47
2019-03-26T21:15:42.767Z,95252.93
2019-03-26T21:18:12.815Z,95256.91
2019-03-26T21:20:42.301Z,95266.51
2019-03-26T21:23:11.952Z,95266.66
2019-03-26T21:25:41.570Z,95257.75
2019-03-26T21:28:11.232Z,95259.28
2019-03-26T21:30:40.783Z,95261.23
2019-03-26T21:33:10.716Z,95271.93
2019-03-26T21:35:40.327Z,95269.21
2019-03-26T21:38:09.830Z,95273.22
2019-03-26T21:40:39.373Z,95282.98
2019-03-26T21:43:08.958Z,95284.44
2019-03-26T21:45:39.524Z,95282.03
2019-03-26T21:48:09.351Z,95290.93
2019-03-26T21:50:38.870Z,95291.05
2019-03-26T21:53:08.547Z,95292.52
2019-03-26T21:55:38.025Z,95300.30
2019-03-26T21:58:07.625Z,95301.06
2019-03-26T22:00:37.194Z,95304.55
2019-03-26T22:03:06.880Z,95301.74
2019-03-26T22:05:36.548Z,95305.59
2019-03-26T22:08:06.316Z,95306.78
2019-03-26T22:10:35.881Z,95313.20
2019-03-26T22:13:06.622Z,95315.69
2019-03-26T22:15:36.227Z,95314.24
2019-03-26T22:18:05.842Z,95315.56
2019-03-26T22:20:35.483Z,95317.73
2019-03-26T22:23:06.071Z,95328.02
2019-03-26T22:25:35.534Z,95312.03
2019-03-26T22:28:05.092Z,95314.39
2019-03-26T22:30:34.674Z,95314.64
2019-03-26T22:33:04.324Z,95310.28
2019-03-26T22:35:33.878Z,95326.62
2019-03-26T22:38:03.457Z,95311.00
2019-03-26T22:40:32.934Z,95329.47
2019-03-26T22:43:02.514Z,95320.85
2019-03-26T22:45:31.997Z,95328.09
2019-03-26T22:48:01.568Z,95323.25
2019-03-26T22:50:31.148Z,95333.12
2019-03-26T22:53:00.859Z,95331.69
2019-03-26T22:55:30.423Z,95323.72
2019-03-26T22:57:59.847Z,95332.36
2019-03-26T23:00:31.044Z,95332.30
2019-03-26T23:03:02.181Z,95332.97
2019-03-26T23:05:31.854Z,95335.25
2019-03-26T23:08:01.489Z,95332.49
2019-03-26T23:10:31.112Z,95325.44
2019-03-26T23:13:00.734Z,95334.64
2019-03-26T23:15:30.370Z,95334.34
2019-03-26T23:18:00.022Z,95336.53
2019-03-26T23:20:29.587Z,95327.72
2019-03-26T23:22:59.233Z,95340.05
2019-03-26T23:25:28.803Z,95342.61
2019-03-26T23:27:58.361Z,95327.55
2019-03-26T23:30:27.917Z,95345.88
2019-03-26T23:32:57.416Z,95330.44
2019-03-26T23:35:27.024Z,95331.37
2019-03-26T23:37:56.654Z,95343.92
2019-03-26T23:40:26.295Z,95345.84
2019-03-26T23:42:55.767Z,95335.02
2019-03-26T23:45:25.257Z,95349.27
2019-03-26T23:47:54.683Z,95348.12
2019-03-26T23:50:24.572Z,95350.52
2019-03-26T23:52:54.468Z,95345.27
2019-03-26T23:55:23.944Z,95341.05
2019-03-26T23:57:55.526Z,95339.05
